sensor_id;sensor_type;location;lat;lon;timestamp;pressure;altitude;pressure_sealevel;temperature;humidity
10992;BME280;5549;47.028;15.514;2023-01-26T00:01:42;97060.91;;;2.99;81.69
10992;BME280;5549;47.028;15.514;2023-01-26T00:04:10;97060.53;;;2.87;82.32
10992;BME280;5549;47.028;15.514;2023-01-26T00:06:38;97059.34;;;2.76;82.52
10992;BME280;5549;47.028;15.514;2023-01-26T00:09:09;97056.91;;;2.92;82.13
10992;BME280;5549;47.028;15.514;2023-01-26T00:11:41;97052.34;;;2.78;82.66
10992;BME280;5549;47.028;15.514;2023-01-26T00:14:09;97048.22;;;2.74;82.76
10992;BME280;5549;47.028;15.514;2023-01-26T00:16:38;97056.34;;;2.85;81.95
10992;BME280;5549;47.028;15.514;2023-01-26T00:19:13;97051.72;;;2.92;81.86
10992;BME280;5549;47.028;15.514;2023-01-26T00:21:41;97054.72;;;2.82;82.11
10992;BME280;5549;47.028;15.514;2023-01-26T00:24:11;97060.44;;;2.51;82.19
10992;BME280;5549;47.028;15.514;2023-01-26T00:26:41;97054.00;;;2.60;82.57
10992;BME280;5549;47.028;15.514;2023-01-26T00:29:08;97059.97;;;2.62;82.19
10992;BME280;5549;47.028;15.514;2023-01-26T00:31:37;97055.28;;;2.70;81.65
10992;BME280;5549;47.028;15.514;2023-01-26T00:34:07;97050.34;;;2.45;82.25
10992;BME280;5549;47.028;15.514;2023-01-26T00:36:35;97052.59;;;2.53;82.35
10992;BME280;5549;47.028;15.514;2023-01-26T00:39:05;97053.66;;;2.49;82.58
10992;BME280;5549;47.028;15.514;2023-01-26T00:41:32;97053.31;;;2.56;81.88
10992;BME280;5549;47.028;15.514;2023-01-26T00:44:18;97050.88;;;2.72;81.65
10992;BME280;5549;47.028;15.514;2023-01-26T00:46:49;97054.50;;;2.68;81.52
10992;BME280;5549;47.028;15.514;2023-01-26T00:49:18;97044.56;;;2.78;81.47
10992;BME280;5549;47.028;15.514;2023-01-26T00:51:46;97041.47;;;2.88;81.39
10992;BME280;5549;47.028;15.514;2023-01-26T00:54:14;97035.03;;;2.97;80.94
10992;BME280;5549;47.028;15.514;2023-01-26T00:56:44;97031.16;;;3.06;80.84
10992;BME280;5549;47.028;15.514;2023-01-26T00:59:11;97034.31;;;3.12;81.08
10992;BME280;5549;47.028;15.514;2023-01-26T01:01:39;97039.06;;;3.21;80.45
10992;BME280;5549;47.028;15.514;2023-01-26T01:04:08;97031.84;;;3.28;80.63
10992;BME280;5549;47.028;15.514;2023-01-26T01:06:36;97023.81;;;3.33;80.39
10992;BME280;5549;47.028;15.514;2023-01-26T01:09:06;97027.75;;;3.41;80.10
10992;BME280;5549;47.028;15.514;2023-01-26T01:11:36;97019.69;;;3.47;79.65
10992;BME280;5549;47.028;15.514;2023-01-26T01:14:03;97020.53;;;3.48;79.60
10992;BME280;5549;47.028;15.514;2023-01-26T01:16:31;97023.81;;;3.51;79.44
10992;BME280;5549;47.028;15.514;2023-01-26T01:18:58;97027.19;;;3.53;78.98
10992;BME280;5549;47.028;15.514;2023-01-26T01:21:29;97023.66;;;3.54;78.77
10992;BME280;5549;47.028;15.514;2023-01-26T01:23:58;97023.66;;;3.54;78.75
10992;BME280;5549;47.028;15.514;2023-01-26T01:26:28;97027.03;;;3.57;78.57
10992;BME280;5549;47.028;15.514;2023-01-26T01:28:55;97026.88;;;3.60;78.47
10992;BME280;5549;47.028;15.514;2023-01-26T01:31:24;97023.22;;;3.64;78.75
10992;BME280;5549;47.028;15.514;2023-01-26T01:33:52;97029.16;;;3.66;78.20
10992;BME280;5549;47.028;15.514;2023-01-26T01:36:19;97021.22;;;3.69;78.19
10992;BME280;5549;47.028;15.514;2023-01-26T01:38:49;97019.25;;;3.74;78.05
10992;BME280;5549;47.028;15.514;2023-01-26T01:41:19;97019.09;;;3.77;77.98
10992;BME280;5549;47.028;15.514;2023-01-26T01:43:48;97014.59;;;3.80;77.59
10992;BME280;5549;47.028;15.514;2023-01-26T01:46:23;97013.59;;;3.83;77.50
10992;BME280;5549;47.028;15.514;2023-01-26T01:48:57;97005.66;;;3.86;77.61
10992;BME280;5549;47.028;15.514;2023-01-26T01:51:33;97010.69;;;3.89;77.18
10992;BME280;5549;47.028;15.514;2023-01-26T01:54:09;96999.38;;;3.90;77.19
10992;BME280;5549;47.028;15.514;2023-01-26T01:56:41;97003.72;;;3.90;76.89
10992;BME280;5549;47.028;15.514;2023-01-26T01:59:12;96995.72;;;3.94;76.85
10992;BME280;5549;47.028;15.514;2023-01-26T02:01:42;96993.19;;;3.93;76.63
10992;BME280;5549;47.028;15.514;2023-01-26T02:04:10;96987.75;;;3.97;76.18
10992;BME280;5549;47.028;15.514;2023-01-26T02:06:43;96986.84;;;3.98;76.37
10992;BME280;5549;47.028;15.514;2023-01-26T02:09:16;96990.34;;;3.97;76.26
10992;BME280;5549;47.028;15.514;2023-01-26T02:11:58;96983.47;;;3.96;76.18
10992;BME280;5549;47.028;15.514;2023-01-26T02:14:28;96986.84;;;3.98;75.92
10992;BME280;5549;47.028;15.514;2023-01-26T02:16:56;96973.84;;;3.98;76.01
10992;BME280;5549;47.028;15.514;2023-01-26T02:19:39;96966.81;;;4.00;75.85
10992;BME280;5549;47.028;15.514;2023-01-26T02:22:22;96966.72;;;4.02;75.76
10992;BME280;5549;47.028;15.514;2023-01-26T02:24:53;96961.59;;;4.00;75.56
10992;BME280;5549;47.028;15.514;2023-01-26T02:27:24;96960.84;;;3.98;75.77
10992;BME280;5549;47.028;15.514;2023-01-26T02:29:53;96964.38;;;3.97;75.78
10992;BME280;5549;47.028;15.514;2023-01-26T02:32:25;96954.97;;;3.95;75.90
10992;BME280;5549;47.028;15.514;2023-01-26T02:34:55;96953.81;;;4.00;75.62
10992;BME280;5549;47.028;15.514;2023-01-26T02:37:24;96953.75;;;4.02;75.63
10992;BME280;5549;47.028;15.514;2023-01-26T02:39:57;96946.63;;;4.05;75.29
10992;BME280;5549;47.028;15.514;2023-01-26T02:42:27;96939.91;;;4.01;75.58
10992;BME280;5549;47.028;15.514;2023-01-26T02:45:13;96936.38;;;4.02;75.15
10992;BME280;5549;47.028;15.514;2023-01-26T02:47:44;96929.50;;;4.01;75.62
10992;BME280;5549;47.028;15.514;2023-01-26T02:50:12;96926.00;;;4.02;75.54
10992;BME280;5549;47.028;15.514;2023-01-26T02:52:38;96926.84;;;4.03;75.24
10992;BME280;5549;47.028;15.514;2023-01-26T02:55:08;96912.91;;;4.04;75.10
10992;BME280;5549;47.028;15.514;2023-01-26T02:57:56;96912.41;;;3.97;75.07
10992;BME280;5549;47.028;15.514;2023-01-26T03:00:26;96913.25;;;3.98;75.18
10992;BME280;5549;47.028;15.514;2023-01-26T03:02:59;96914.16;;;3.97;75.29
10992;BME280;5549;47.028;15.514;2023-01-26T03:05:28;96911.47;;;3.98;74.91
10992;BME280;5549;47.028;15.514;2023-01-26T03:07:55;96910.56;;;3.99;74.80
10992;BME280;5549;47.028;15.514;2023-01-26T03:10:23;96899.16;;;4.02;74.92
10992;BME280;5549;47.028;15.514;2023-01-26T03:12:56;96891.28;;;4.03;74.80
10992;BME280;5549;47.028;15.514;2023-01-26T03:15:24;96894.13;;;3.99;74.93
10992;BME280;5549;47.028;15.514;2023-01-26T03:18:18;96896.81;;;3.97;74.98
10992;BME280;5549;47.028;15.514;2023-01-26T03:21:09;96894.63;;;3.90;75.04
10992;BME280;5549;47.028;15.514;2023-01-26T03:23:57;96887.13;;;3.83;75.12
10992;BME280;5549;47.028;15.514;2023-01-26T03:26:42;96885.38;;;3.84;75.08
10992;BME280;5549;47.028;15.514;2023-01-26T03:29:36;96879.94;;;3.89;75.06
10992;BME280;5549;47.028;15.514;2023-01-26T03:32:04;96884.34;;;3.71;75.95
10992;BME280;5549;47.028;15.514;2023-01-26T03:34:32;96874.16;;;3.83;75.42
10992;BME280;5549;47.028;15.514;2023-01-26T03:37:02;96873.22;;;3.84;75.34
10992;BME280;5549;47.028;15.514;2023-01-26T03:39:32;96867.97;;;3.86;75.31
10992;BME280;5549;47.028;15.514;2023-01-26T03:42:19;96869.63;;;3.87;75.23
10992;BME280;5549;47.028;15.514;2023-01-26T03:45:07;96862.91;;;3.83;75.49
10992;BME280;5549;47.028;15.514;2023-01-26T03:48:04;96856.56;;;3.89;75.02
10992;BME280;5549;47.028;15.514;2023-01-26T03:50:49;96856.47;;;3.90;75.00
10992;BME280;5549;47.028;15.514;2023-01-26T03:53:34;96851.19;;;3.92;75.10
10992;BME280;5549;47.028;15.514;2023-01-26T03:56:19;96854.63;;;3.92;75.24
10992;BME280;5549;47.028;15.514;2023-01-26T03:58:50;96854.81;;;3.89;74.82
10992;BME280;5549;47.028;15.514;2023-01-26T04:01:21;96853.81;;;3.92;74.95
10992;BME280;5549;47.028;15.514;2023-01-26T04:03:55;96846.94;;;3.91;74.78
10992;BME280;5549;47.028;15.514;2023-01-26T04:06:44;96848.00;;;3.86;74.78
10992;BME280;5549;47.028;15.514;2023-01-26T04:09:32;96845.16;;;3.91;74.93
10992;BME280;5549;47.028;15.514;2023-01-26T04:12:02;96843.50;;;3.90;75.10
10992;BME280;5549;47.028;15.514;2023-01-26T04:14:33;96835.25;;;3.82;74.88
10992;BME280;5549;47.028;15.514;2023-01-26T04:17:21;96834.34;;;3.83;74.94
10992;BME280;5549;47.028;15.514;2023-01-26T04:20:10;96832.06;;;3.77;75.15
10992;BME280;5549;47.028;15.514;2023-01-26T04:22:57;96834.50;;;3.47;76.13
10992;BME280;5549;47.028;15.514;2023-01-26T04:25:25;96823.41;;;3.61;75.69
10992;BME280;5549;47.028;15.514;2023-01-26T04:27:52;96829.00;;;3.53;76.41
10992;BME280;5549;47.028;15.514;2023-01-26T04:30:20;96832.19;;;3.58;75.87
10992;BME280;5549;47.028;15.514;2023-01-26T04:32:52;96818.94;;;3.47;76.17
10992;BME280;5549;47.028;15.514;2023-01-26T04:35:20;96826.63;;;3.48;76.42
10992;BME280;5549;47.028;15.514;2023-01-26T04:37:48;96827.84;;;3.59;75.78
10992;BME280;5549;47.028;15.514;2023-01-26T04:40:16;96819.53;;;3.52;75.90
10992;BME280;5549;47.028;15.514;2023-01-26T04:42:44;96817.63;;;3.56;76.08
10992;BME280;5549;47.028;15.514;2023-01-26T04:45:11;96824.03;;;3.31;76.83
10992;BME280;5549;47.028;15.514;2023-01-26T04:47:39;96812.19;;;3.43;76.09
10992;BME280;5549;47.028;15.514;2023-01-26T04:50:09;96808.84;;;3.41;76.30
10992;BME280;5549;47.028;15.514;2023-01-26T04:52:37;96813.97;;;3.25;76.64
10992;BME280;5549;47.028;15.514;2023-01-26T04:55:08;96813.84;;;3.11;76.91
10992;BME280;5549;47.028;15.514;2023-01-26T04:57:36;96811.25;;;2.94;77.73
10992;BME280;5549;47.028;15.514;2023-01-26T05:00:05;96812.75;;;2.98;77.60
10992;BME280;5549;47.028;15.514;2023-01-26T05:02:35;96813.06;;;3.09;77.37
10992;BME280;5549;47.028;15.514;2023-01-26T05:05:02;96814.81;;;3.08;77.63
10992;BME280;5549;47.028;15.514;2023-01-26T05:07:32;96813.16;;;3.07;77.80
10992;BME280;5549;47.028;15.514;2023-01-26T05:09:59;96812.00;;;2.96;78.11
10992;BME280;5549;47.028;15.514;2023-01-26T05:12:26;96809.72;;;3.07;78.09
10992;BME280;5549;47.028;15.514;2023-01-26T05:15:00;96806.19;;;3.08;77.61
10992;BME280;5549;47.028;15.514;2023-01-26T05:17:27;96811.31;;;2.92;78.46
10992;BME280;5549;47.028;15.514;2023-01-26T05:19:55;96810.63;;;2.88;78.05
10992;BME280;5549;47.028;15.514;2023-01-26T05:22:24;96810.03;;;3.01;77.70
10992;BME280;5549;47.028;15.514;2023-01-26T05:24:56;96812.00;;;2.96;78.21
10992;BME280;5549;47.028;15.514;2023-01-26T05:27:23;96810.09;;;2.99;78.09
10992;BME280;5549;47.028;15.514;2023-01-26T05:29:51;96806.34;;;2.87;78.23
10992;BME280;5549;47.028;15.514;2023-01-26T05:32:20;96807.56;;;2.98;78.15
10992;BME280;5549;47.028;15.514;2023-01-26T05:34:48;96804.97;;;2.98;77.84
10992;BME280;5549;47.028;15.514;2023-01-26T05:37:15;96806.50;;;2.84;77.97
10992;BME280;5549;47.028;15.514;2023-01-26T05:39:43;96806.88;;;2.94;77.91
10992;BME280;5549;47.028;15.514;2023-01-26T05:42:12;96802.78;;;2.90;78.38
10992;BME280;5549;47.028;15.514;2023-01-26T05:44:40;96812.16;;;2.93;78.32
10992;BME280;5549;47.028;15.514;2023-01-26T05:47:10;96802.25;;;2.83;77.97
10992;BME280;5549;47.028;15.514;2023-01-26T05:49:37;96806.88;;;2.94;77.46
10992;BME280;5549;47.028;15.514;2023-01-26T05:52:12;96810.03;;;3.01;77.66
10992;BME280;5549;47.028;15.514;2023-01-26T05:54:40;96805.13;;;2.95;77.90
10992;BME280;5549;47.028;15.514;2023-01-26T05:57:08;96802.53;;;2.95;77.80
10992;BME280;5549;47.028;15.514;2023-01-26T05:59:38;96799.19;;;2.75;78.69
10992;BME280;5549;47.028;15.514;2023-01-26T06:02:06;96811.00;;;2.98;78.07
10992;BME280;5549;47.028;15.514;2023-01-26T06:04:33;96805.50;;;3.04;77.69
10992;BME280;5549;47.028;15.514;2023-01-26T06:07:01;96807.88;;;3.09;77.63
10992;BME280;5549;47.028;15.514;2023-01-26T06:09:28;96802.53;;;3.12;77.51
10992;BME280;5549;47.028;15.514;2023-01-26T06:11:56;96804.13;;;3.14;77.29
10992;BME280;5549;47.028;15.514;2023-01-26T06:14:24;96806.66;;;3.16;77.43
10992;BME280;5549;47.028;15.514;2023-01-26T06:16:53;96801.84;;;3.08;77.73
10992;BME280;5549;47.028;15.514;2023-01-26T06:19:24;96804.97;;;3.15;76.81
10992;BME280;5549;47.028;15.514;2023-01-26T06:21:51;96800.69;;;3.14;77.18
10992;BME280;5549;47.028;15.514;2023-01-26T06:24:19;96798.34;;;3.09;77.04
10992;BME280;5549;47.028;15.514;2023-01-26T06:26:46;96796.50;;;3.11;77.18
10992;BME280;5549;47.028;15.514;2023-01-26T06:29:15;96793.00;;;3.12;77.23
10992;BME280;5549;47.028;15.514;2023-01-26T06:31:42;96789.56;;;3.12;77.28
10992;BME280;5549;47.028;15.514;2023-01-26T06:34:11;96798.56;;;3.05;77.33
10992;BME280;5549;47.028;15.514;2023-01-26T06:36:38;96794.00;;;3.10;77.21
10992;BME280;5549;47.028;15.514;2023-01-26T06:39:07;96790.47;;;3.11;77.23
10992;BME280;5549;47.028;15.514;2023-01-26T06:41:36;96786.72;;;3.16;77.28
10992;BME280;5549;47.028;15.514;2023-01-26T06:44:04;96792.75;;;3.17;77.00
10992;BME280;5549;47.028;15.514;2023-01-26T06:46:34;96796.88;;;3.21;77.01
10992;BME280;5549;47.028;15.514;2023-01-26T06:49:01;96792.38;;;3.25;76.91
10992;BME280;5549;47.028;15.514;2023-01-26T06:51:47;96796.03;;;3.20;76.96
10992;BME280;5549;47.028;15.514;2023-01-26T06:54:20;96788.84;;;3.26;76.83
10992;BME280;5549;47.028;15.514;2023-01-26T06:56:48;96792.88;;;3.31;76.78
10992;BME280;5549;47.028;15.514;2023-01-26T06:59:18;96789.38;;;3.32;76.80
10992;BME280;5549;47.028;15.514;2023-01-26T07:01:46;96788.84;;;3.26;76.61
10992;BME280;5549;47.028;15.514;2023-01-26T07:04:15;96787.78;;;3.30;76.53
10992;BME280;5549;47.028;15.514;2023-01-26T07:06:45;96779.22;;;3.28;76.21
10992;BME280;5549;47.028;15.514;2023-01-26T07:09:14;96772.88;;;3.33;76.23
10992;BME280;5549;47.028;15.514;2023-01-26T07:11:44;96784.63;;;3.58;81.77
10992;BME280;5549;47.028;15.514;2023-01-26T07:14:12;96779.13;;;4.27;88.56
10992;BME280;5549;47.028;15.514;2023-01-26T07:16:42;96770.66;;;4.99;90.14
10992;BME280;5549;47.028;15.514;2023-01-26T07:19:09;96774.84;;;5.60;87.17
10992;BME280;5549;47.028;15.514;2023-01-26T07:21:37;96765.41;;;6.14;82.75
10992;BME280;5549;47.028;15.514;2023-01-26T07:24:07;96760.38;;;6.65;79.11
10992;BME280;5549;47.028;15.514;2023-01-26T07:26:35;96760.81;;;7.11;74.81
10992;BME280;5549;47.028;15.514;2023-01-26T07:29:04;96760.09;;;7.47;72.39
10992;BME280;5549;47.028;15.514;2023-01-26T07:31:32;96756.72;;;7.83;69.55
10992;BME280;5549;47.028;15.514;2023-01-26T07:34:01;96747.22;;;8.19;66.96
10992;BME280;5549;47.028;15.514;2023-01-26T07:36:29;96751.09;;;8.50;65.19
10992;BME280;5549;47.028;15.514;2023-01-26T07:38:58;96750.78;;;8.78;63.96
10992;BME280;5549;47.028;15.514;2023-01-26T07:41:27;96752.75;;;8.98;62.55
10992;BME280;5549;47.028;15.514;2023-01-26T07:43:55;96754.72;;;9.19;62.03
10992;BME280;5549;47.028;15.514;2023-01-26T07:46:22;96745.69;;;9.34;60.69
10992;BME280;5549;47.028;15.514;2023-01-26T07:48:50;96758.69;;;8.65;59.25
10992;BME280;5549;47.028;15.514;2023-01-26T07:51:20;96757.59;;;8.08;60.41
10992;BME280;5549;47.028;15.514;2023-01-26T07:53:48;96764.06;;;7.53;61.17
10992;BME280;5549;47.028;15.514;2023-01-26T07:56:17;96768.66;;;7.11;62.06
10992;BME280;5549;47.028;15.514;2023-01-26T07:58:50;96772.50;;;5.98;63.45
10992;BME280;5549;47.028;15.514;2023-01-26T08:01:19;96782.09;;;5.97;64.44
10992;BME280;5549;47.028;15.514;2023-01-26T08:03:50;96780.59;;;5.51;65.04
10992;BME280;5549;47.028;15.514;2023-01-26T08:06:19;96780.22;;;5.28;66.30
10992;BME280;5549;47.028;15.514;2023-01-26T08:08:49;96787.28;;;5.26;67.50
10992;BME280;5549;47.028;15.514;2023-01-26T08:11:19;96784.44;;;5.15;67.73
10992;BME280;5549;47.028;15.514;2023-01-26T08:13:50;96788.44;;;4.76;67.86
10992;BME280;5549;47.028;15.514;2023-01-26T08:16:18;96787.69;;;4.74;68.41
10992;BME280;5549;47.028;15.514;2023-01-26T08:18:47;96787.09;;;4.69;68.97
10992;BME280;5549;47.028;15.514;2023-01-26T08:21:18;96789.88;;;4.66;69.15
10992;BME280;5549;47.028;15.514;2023-01-26T08:23:48;96790.69;;;4.05;70.52
10992;BME280;5549;47.028;15.514;2023-01-26T08:26:19;96789.94;;;3.88;71.48
10992;BME280;5549;47.028;15.514;2023-01-26T08:28:47;96793.19;;;3.75;72.18
10992;BME280;5549;47.028;15.514;2023-01-26T08:31:19;96794.69;;;3.64;73.02
10992;BME280;5549;47.028;15.514;2023-01-26T08:33:48;96796.44;;;3.63;73.19
10992;BME280;5549;47.028;15.514;2023-01-26T08:36:18;96803.31;;;3.64;73.21
10992;BME280;5549;47.028;15.514;2023-01-26T08:38:45;96805.22;;;3.61;73.71
10992;BME280;5549;47.028;15.514;2023-01-26T08:41:13;96802.03;;;3.38;74.20
10992;BME280;5549;47.028;15.514;2023-01-26T08:43:43;96807.22;;;3.56;73.81
10992;BME280;5549;47.028;15.514;2023-01-26T08:46:10;96804.75;;;3.70;73.51
10992;BME280;5549;47.028;15.514;2023-01-26T08:48:41;96800.34;;;3.54;74.41
10992;BME280;5549;47.028;15.514;2023-01-26T08:51:09;96796.94;;;3.37;74.77
10992;BME280;5549;47.028;15.514;2023-01-26T08:53:36;96798.31;;;3.27;75.79
10992;BME280;5549;47.028;15.514;2023-01-26T08:56:07;96802.97;;;3.37;75.52
10992;BME280;5549;47.028;15.514;2023-01-26T08:58:34;96799.19;;;3.10;76.30
10992;BME280;5549;47.028;15.514;2023-01-26T09:01:05;96805.81;;;3.15;76.24
10992;BME280;5549;47.028;15.514;2023-01-26T09:03:35;96807.50;;;2.99;76.88
10992;BME280;5549;47.028;15.514;2023-01-26T09:06:06;96803.16;;;3.00;77.04
10992;BME280;5549;47.028;15.514;2023-01-26T09:08:34;96787.50;;;3.18;76.72
10992;BME280;5549;47.028;15.514;2023-01-26T09:11:04;96794.56;;;3.32;75.94
10992;BME280;5549;47.028;15.514;2023-01-26T09:13:32;96802.16;;;3.19;76.70
10992;BME280;5549;47.028;15.514;2023-01-26T09:16:03;96801.06;;;3.23;76.55
10992;BME280;5549;47.028;15.514;2023-01-26T09:18:31;96801.19;;;3.38;75.80
10992;BME280;5549;47.028;15.514;2023-01-26T09:21:04;96805.63;;;3.36;76.00
10992;BME280;5549;47.028;15.514;2023-01-26T09:23:33;96808.47;;;3.31;76.23
10992;BME280;5549;47.028;15.514;2023-01-26T09:26:04;96814.88;;;3.24;76.65
10992;BME280;5549;47.028;15.514;2023-01-26T09:28:31;96803.75;;;3.22;77.29
10992;BME280;5549;47.028;15.514;2023-01-26T09:31:03;96810.31;;;2.95;77.66
10992;BME280;5549;47.028;15.514;2023-01-26T09:33:31;96813.06;;;3.09;77.53
10992;BME280;5549;47.028;15.514;2023-01-26T09:36:04;96810.25;;;3.13;76.96
10992;BME280;5549;47.028;15.514;2023-01-26T09:38:34;96814.13;;;3.05;77.33
10992;BME280;5549;47.028;15.514;2023-01-26T09:41:06;96811.38;;;3.08;76.69
10992;BME280;5549;47.028;15.514;2023-01-26T09:43:44;96811.31;;;3.09;76.20
10992;BME280;5549;47.028;15.514;2023-01-26T09:46:22;96809.00;;;3.20;76.05
10992;BME280;5549;47.028;15.514;2023-01-26T09:49:01;96799.25;;;3.26;75.85
10992;BME280;5549;47.028;15.514;2023-01-26T09:51:37;96803.78;;;3.38;75.27
10992;BME280;5549;47.028;15.514;2023-01-26T09:54:20;96796.00;;;3.38;75.73
10992;BME280;5549;47.028;15.514;2023-01-26T09:56:53;96790.59;;;3.42;75.35
10992;BME280;5549;47.028;15.514;2023-01-26T09:59:31;96794.94;;;3.42;75.65
10992;BME280;5549;47.028;15.514;2023-01-26T10:02:24;96785.31;;;3.44;74.46
10992;BME280;5549;47.028;15.514;2023-01-26T10:04:59;96782.50;;;3.48;74.67
10992;BME280;5549;47.028;15.514;2023-01-26T10:07:29;96780.88;;;3.46;74.67
10992;BME280;5549;47.028;15.514;2023-01-26T10:09:57;96777.16;;;3.51;74.59
10992;BME280;5549;47.028;15.514;2023-01-26T10:12:30;96770.03;;;3.55;74.03
10992;BME280;5549;47.028;15.514;2023-01-26T10:15:02;96771.56;;;3.59;74.02
10992;BME280;5549;47.028;15.514;2023-01-26T10:17:33;96765.34;;;3.62;74.12
10992;BME280;5549;47.028;15.514;2023-01-26T10:20:08;96768.53;;;3.67;74.08
10992;BME280;5549;47.028;15.514;2023-01-26T10:22:48;96755.22;;;3.73;73.82
10992;BME280;5549;47.028;15.514;2023-01-26T10:25:26;96752.31;;;3.79;73.87
10992;BME280;5549;47.028;15.514;2023-01-26T10:27:58;96752.28;;;3.63;73.47
10992;BME280;5549;47.028;15.514;2023-01-26T10:30:28;96747.53;;;3.71;73.16
10992;BME280;5549;47.028;15.514;2023-01-26T10:32:55;96739.66;;;3.73;73.42
10992;BME280;5549;47.028;15.514;2023-01-26T10:35:25;96730.19;;;3.72;73.68
10992;BME280;5549;47.028;15.514;2023-01-26T10:37:55;96740.91;;;3.81;73.57
10992;BME280;5549;47.028;15.514;2023-01-26T10:40:23;96731.34;;;3.82;73.71
10992;BME280;5549;47.028;15.514;2023-01-26T10:42:57;96736.06;;;3.91;73.53
10992;BME280;5549;47.028;15.514;2023-01-26T10:45:29;96733.88;;;3.83;73.10
10992;BME280;5549;47.028;15.514;2023-01-26T10:48:16;96718.88;;;3.73;73.64
10992;BME280;5549;47.028;15.514;2023-01-26T10:50:45;96716.28;;;3.73;73.53
10992;BME280;5549;47.028;15.514;2023-01-26T10:53:23;96715.28;;;3.75;73.27
10992;BME280;5549;47.028;15.514;2023-01-26T10:56:00;96702.94;;;3.79;72.71
10992;BME280;5549;47.028;15.514;2023-01-26T10:58:44;96700.00;;;3.85;72.86
10992;BME280;5549;47.028;15.514;2023-01-26T11:01:13;96701.69;;;3.86;72.79
10992;BME280;5549;47.028;15.514;2023-01-26T11:04:01;96700.78;;;3.87;72.45
10992;BME280;5549;47.028;15.514;2023-01-26T11:06:31;96689.19;;;3.93;72.19
10992;BME280;5549;47.028;15.514;2023-01-26T11:09:17;96690.97;;;3.92;71.94
10992;BME280;5549;47.028;15.514;2023-01-26T11:11:59;96685.94;;;3.89;71.81
10992;BME280;5549;47.028;15.514;2023-01-26T11:14:30;96675.28;;;3.94;71.96
10992;BME280;5549;47.028;15.514;2023-01-26T11:17:12;96676.88;;;3.96;72.42
10992;BME280;5549;47.028;15.514;2023-01-26T11:20:06;96672.19;;;4.03;72.29
10992;BME280;5549;47.028;15.514;2023-01-26T11:22:47;96671.00;;;4.08;72.21
10992;BME280;5549;47.028;15.514;2023-01-26T11:25:25;96659.00;;;4.06;72.37
10992;BME280;5549;47.028;15.514;2023-01-26T11:28:10;96663.78;;;4.13;72.07
10992;BME280;5549;47.028;15.514;2023-01-26T11:31:11;96658.84;;;4.09;71.99
10992;BME280;5549;47.028;15.514;2023-01-26T11:33:54;96663.69;;;4.15;71.62
10992;BME280;5549;47.028;15.514;2023-01-26T11:36:36;96659.41;;;4.14;72.05
10992;BME280;5549;47.028;15.514;2023-01-26T11:39:16;96648.94;;;4.15;71.56
10992;BME280;5549;47.028;15.514;2023-01-26T11:41:54;96652.38;;;4.16;71.17
10992;BME280;5549;47.028;15.514;2023-01-26T11:44:36;96649.75;;;4.16;71.23
10992;BME280;5549;47.028;15.514;2023-01-26T11:47:20;96637.59;;;4.16;71.52
10992;BME280;5549;47.028;15.514;2023-01-26T11:50:02;96634.66;;;4.23;71.39
10992;BME280;5549;47.028;15.514;2023-01-26T11:52:44;96630.03;;;4.28;70.68
10992;BME280;5549;47.028;15.514;2023-01-26T11:55:21;96626.69;;;4.26;70.71
10992;BME280;5549;47.028;15.514;2023-01-26T11:58:12;96619.44;;;4.31;70.37
10992;BME280;5549;47.028;15.514;2023-01-26T12:00:48;96617.25;;;4.39;70.60
10992;BME280;5549;47.028;15.514;2023-01-26T12:03:24;96611.13;;;4.40;69.89
10992;BME280;5549;47.028;15.514;2023-01-26T12:05:57;96609.34;;;4.40;69.66
10992;BME280;5549;47.028;15.514;2023-01-26T12:08:32;96608.16;;;4.46;69.57
10992;BME280;5549;47.028;15.514;2023-01-26T12:11:07;96607.97;;;4.49;69.24
10992;BME280;5549;47.028;15.514;2023-01-26T12:14:09;96603.69;;;4.48;69.37
10992;BME280;5549;47.028;15.514;2023-01-26T12:16:48;96596.25;;;4.42;69.31
10992;BME280;5549;47.028;15.514;2023-01-26T12:19:41;96588.94;;;4.48;67.78
10992;BME280;5549;47.028;15.514;2023-01-26T12:22:17;96600.72;;;4.40;67.54
10992;BME280;5549;47.028;15.514;2023-01-26T12:24:51;96586.69;;;4.42;67.94
10992;BME280;5549;47.028;15.514;2023-01-26T12:27:28;96583.81;;;4.47;68.30
10992;BME280;5549;47.028;15.514;2023-01-26T12:30:07;96586.16;;;4.51;68.33
10992;BME280;5549;47.028;15.514;2023-01-26T12:32:38;96576.94;;;4.46;67.86
10992;BME280;5549;47.028;15.514;2023-01-26T12:35:10;96578.81;;;4.44;67.83
10992;BME280;5549;47.028;15.514;2023-01-26T12:37:45;96571.56;;;4.49;67.45
10992;BME280;5549;47.028;15.514;2023-01-26T12:40:32;96570.06;;;4.45;67.49
10992;BME280;5549;47.028;15.514;2023-01-26T12:43:16;96575.56;;;4.40;67.40
10992;BME280;5549;47.028;15.514;2023-01-26T12:45:50;96573.78;;;4.41;66.82
10992;BME280;5549;47.028;15.514;2023-01-26T12:48:29;96565.44;;;4.50;66.87
10992;BME280;5549;47.028;15.514;2023-01-26T12:51:06;96571.28;;;4.54;66.52
10992;BME280;5549;47.028;15.514;2023-01-26T12:53:48;96570.53;;;4.51;65.68
10992;BME280;5549;47.028;15.514;2023-01-26T12:56:23;96558.19;;;4.55;65.80
10992;BME280;5549;47.028;15.514;2023-01-26T12:58:52;96557.72;;;4.63;66.50
10992;BME280;5549;47.028;15.514;2023-01-26T13:01:25;96550.50;;;4.68;66.51
10992;BME280;5549;47.028;15.514;2023-01-26T13:04:08;96549.28;;;4.73;66.50
10992;BME280;5549;47.028;15.514;2023-01-26T13:06:37;96551.41;;;4.67;66.91
10992;BME280;5549;47.028;15.514;2023-01-26T13:09:20;96549.28;;;4.73;66.28
10992;BME280;5549;47.028;15.514;2023-01-26T13:11:51;96554.94;;;4.80;66.81
10992;BME280;5549;47.028;15.514;2023-01-26T13:14:57;96557.53;;;4.80;66.19
10992;BME280;5549;47.028;15.514;2023-01-26T13:17:56;96549.09;;;4.76;66.02
10992;BME280;5549;47.028;15.514;2023-01-26T13:20:43;96553.56;;;4.74;65.96
10992;BME280;5549;47.028;15.514;2023-01-26T13:23:44;96551.50;;;4.37;66.67
10992;BME280;5549;47.028;15.514;2023-01-26T13:26:19;96554.00;;;4.38;66.65
10992;BME280;5549;47.028;15.514;2023-01-26T13:28:48;96555.38;;;4.30;67.50
10992;BME280;5549;47.028;15.514;2023-01-26T13:31:32;96554.84;;;4.39;66.53
10992;BME280;5549;47.028;15.514;2023-01-26T13:34:06;96550.56;;;4.38;66.28
10992;BME280;5549;47.028;15.514;2023-01-26T13:36:38;96546.94;;;4.40;65.58
10992;BME280;5549;47.028;15.514;2023-01-26T13:39:13;96548.72;;;4.40;65.65
10992;BME280;5549;47.028;15.514;2023-01-26T13:41:46;96540.91;;;4.26;67.06